createdAt,value
2022-11-06T00:01:48.488Z,4.13
2022-11-06T00:04:53.518Z,4.87
2022-11-06T00:07:56.157Z,4.23
2022-11-06T00:11:00.060Z,4.57
2022-11-06T00:14:05.796Z,4.60
2022-11-06T00:17:09.528Z,4.07
2022-11-06T00:20:14.446Z,3.90
2022-11-06T00:23:18.001Z,4.50
2022-11-06T00:26:26.221Z,4.13
2022-11-06T00:29:29.779Z,4.30
2022-11-06T00:32:33.859Z,4.87
2022-11-06T00:35:41.467Z,4.37
2022-11-06T00:38:45.784Z,4.80
2022-11-06T00:41:49.361Z,4.37
2022-11-06T00:44:52.982Z,4.30
2022-11-06T00:47:57.355Z,4.50
2022-11-06T00:51:06.357Z,4.80
2022-11-06T00:54:13.691Z,4.27
2022-11-06T00:57:17.300Z,5.07
2022-11-06T01:00:22.522Z,4.50
2022-11-06T01:03:26.102Z,4.97
2022-11-06T01:06:35.629Z,4.83
2022-11-06T01:09:39.349Z,4.97
2022-11-06T01:12:42.903Z,4.90
2022-11-06T01:15:46.550Z,5.10
2022-11-06T01:18:50.902Z,4.50
2022-11-06T01:21:55.873Z,5.23
2022-11-06T01:24:59.643Z,4.77
2022-11-06T01:28:03.358Z,4.70
2022-11-06T01:31:09.143Z,5.77
2022-11-06T01:34:14.176Z,4.77
2022-11-06T01:37:19.142Z,4.87
2022-11-06T01:40:22.781Z,4.50
2022-11-06T01:43:46.549Z,5.10
2022-11-06T01:46:50.113Z,4.77
2022-11-06T01:50:00.743Z,4.97
2022-11-06T01:53:06.822Z,4.60
2022-11-06T01:56:14.441Z,5.83
2022-11-06T01:59:22.487Z,4.50
2022-11-06T02:02:26.300Z,5.57
2022-11-06T02:05:30.272Z,5.77
2022-11-06T02:08:36.167Z,5.50
2022-11-06T02:11:40.432Z,5.47
2022-11-06T02:15:02.547Z,4.90
2022-11-06T02:18:45.787Z,4.73
2022-11-06T02:22:27.113Z,4.87
2022-11-06T02:25:47.448Z,4.90
2022-11-06T02:28:59.145Z,4.90
2022-11-06T02:32:12.087Z,4.57
2022-11-06T02:35:25.565Z,4.33
2022-11-06T02:38:35.969Z,4.30
2022-11-06T02:41:45.624Z,4.67
2022-11-06T02:44:56.182Z,5.40
2022-11-06T02:48:02.496Z,4.70
2022-11-06T02:51:10.972Z,4.80
2022-11-06T02:54:19.346Z,4.77
2022-11-06T02:57:25.847Z,4.70
2022-11-06T03:00:32.490Z,4.40
2022-11-06T03:03:42.466Z,4.20
2022-11-06T03:06:54.018Z,4.40
2022-11-06T03:09:58.448Z,4.63
2022-11-06T03:13:14.580Z,4.47
2022-11-06T03:16:34.542Z,4.30
2022-11-06T03:19:49.664Z,4.73
2022-11-06T03:23:04.369Z,4.40
2022-11-06T03:26:17.239Z,5.13
2022-11-06T03:29:31.402Z,5.00
2022-11-06T03:32:49.074Z,4.37
2022-11-06T03:35:59.326Z,4.30
2022-11-06T03:39:09.805Z,4.50
2022-11-06T03:42:20.533Z,4.07
2022-11-06T03:45:28.819Z,4.90
2022-11-06T03:48:40.854Z,4.50
2022-11-06T03:51:51.294Z,4.10
2022-11-06T03:55:02.258Z,4.80
2022-11-06T03:58:12.405Z,4.20
2022-11-06T04:01:22.644Z,4.43
2022-11-06T04:04:36.440Z,4.30
2022-11-06T04:08:07.676Z,3.90
2022-11-06T04:11:34.317Z,3.97
2022-11-06T04:14:42.210Z,4.37
2022-11-06T04:17:45.832Z,4.47
2022-11-06T04:21:25.953Z,4.53
2022-11-06T04:25:05.003Z,4.67
2022-11-06T04:28:26.987Z,4.53
2022-11-06T04:31:43.406Z,4.83
2022-11-06T04:34:56.695Z,4.50
2022-11-06T04:38:09.743Z,4.47
2022-11-06T04:41:34.643Z,4.27
2022-11-06T04:44:47.850Z,5.10
2022-11-06T04:47:54.932Z,4.10
2022-11-06T04:51:04.464Z,5.00
2022-11-06T04:54:12.070Z,4.23
2022-11-06T04:57:15.865Z,4.63
2022-11-06T05:00:20.067Z,4.27
2022-11-06T05:03:23.630Z,3.70
2022-11-06T05:06:30.138Z,4.03
2022-11-06T05:09:35.390Z,4.13
2022-11-06T05:12:39.074Z,4.27
2022-11-06T05:15:43.026Z,4.03
2022-11-06T05:18:46.631Z,4.00
2022-11-06T05:22:07.576Z,3.83
2022-11-06T05:25:12.563Z,3.67
2022-11-06T05:28:16.304Z,4.20
2022-11-06T05:31:20.120Z,3.83
2022-11-06T05:34:23.874Z,4.00
2022-11-06T05:37:28.824Z,3.73
2022-11-06T05:40:33.756Z,3.33
2022-11-06T05:43:37.422Z,3.60
2022-11-06T05:46:49.932Z,3.87
2022-11-06T05:49:53.855Z,3.80
2022-11-06T05:52:57.509Z,4.00
2022-11-06T05:56:02.533Z,4.40
2022-11-06T05:59:06.130Z,4.07
2022-11-06T06:02:10.476Z,4.10
2022-11-06T06:05:14.757Z,4.17
2022-11-06T06:08:18.903Z,3.93
2022-11-06T06:11:23.851Z,4.03
2022-11-06T06:14:27.534Z,4.30
2022-11-06T06:17:31.106Z,4.30
2022-11-06T06:20:35.310Z,3.97
2022-11-06T06:23:38.888Z,3.50
2022-11-06T06:26:43.925Z,4.40
2022-11-06T06:29:47.625Z,3.20
2022-11-06T06:32:52.788Z,4.27
2022-11-06T06:35:56.509Z,4.63
2022-11-06T06:39:00.242Z,3.67
2022-11-06T06:42:05.309Z,3.40
2022-11-06T06:45:09.515Z,3.70
2022-11-06T06:48:13.427Z,3.47
2022-11-06T06:51:23.555Z,3.50
2022-11-06T06:54:27.720Z,3.57
2022-11-06T06:57:32.929Z,3.70
2022-11-06T07:00:36.543Z,3.80
2022-11-06T07:03:41.084Z,3.47
2022-11-06T07:06:44.589Z,2.50
2022-11-06T07:09:48.669Z,2.93
2022-11-06T07:12:53.577Z,2.77
2022-11-06T07:15:57.317Z,2.73
2022-11-06T07:19:01.888Z,3.27
2022-11-06T07:22:05.450Z,2.77
2022-11-06T07:25:10.161Z,2.80
2022-11-06T07:28:16.040Z,3.17
2022-11-06T07:31:19.912Z,2.87
2022-11-06T07:34:24.924Z,3.00
2022-11-06T07:37:28.611Z,3.00
2022-11-06T07:40:32.260Z,2.17
2022-11-06T07:43:38.297Z,2.80
2022-11-06T07:46:41.899Z,3.27
2022-11-06T07:49:50.568Z,3.20
2022-11-06T07:52:54.824Z,2.80
2022-11-06T07:55:58.626Z,2.67
2022-11-06T07:59:03.659Z,2.57
2022-11-06T08:02:07.717Z,3.27
2022-11-06T08:05:11.630Z,2.47
2022-11-06T08:08:15.958Z,3.27
2022-11-06T08:11:19.942Z,2.90
2022-11-06T08:14:25.132Z,2.90
2022-11-06T08:17:30.158Z,2.83
2022-11-06T08:20:33.913Z,2.70
2022-11-06T08:23:38.978Z,2.70
2022-11-06T08:26:42.998Z,2.83
2022-11-06T08:29:48.058Z,2.83
2022-11-06T08:32:51.928Z,2.43
2022-11-06T08:35:57.449Z,3.00
2022-11-06T08:39:01.057Z,2.57
2022-11-06T08:42:06.377Z,2.23
2022-11-06T08:45:12.366Z,2.63
2022-11-06T08:48:18.388Z,2.87
2022-11-06T08:51:26.201Z,2.67
2022-11-06T08:54:29.877Z,2.20
2022-11-06T08:57:33.517Z,2.53
2022-11-06T09:00:38.935Z,2.60
2022-11-06T09:03:42.664Z,2.67
2022-11-06T09:06:46.150Z,2.03
2022-11-06T09:09:49.786Z,2.60
2022-11-06T09:12:53.873Z,2.30
2022-11-06T09:15:59.117Z,2.03
2022-11-06T09:19:02.773Z,1.90
2022-11-06T09:22:06.317Z,2.17
2022-11-06T09:25:11.489Z,2.07
2022-11-06T09:28:15.040Z,2.00
2022-11-06T09:31:19.986Z,2.37
2022-11-06T09:34:23.519Z,2.27
2022-11-06T09:37:27.154Z,1.63
2022-11-06T09:40:35.659Z,2.10
2022-11-06T09:44:05.552Z,1.93
2022-11-06T09:47:21.266Z,1.70
2022-11-06T09:50:33.141Z,1.83
2022-11-06T09:53:43.834Z,1.70
2022-11-06T09:56:55.493Z,1.70
2022-11-06T10:00:01.989Z,2.17
2022-11-06T10:03:17.765Z,1.90
2022-11-06T10:06:24.046Z,2.17
2022-11-06T10:09:27.593Z,1.80
2022-11-06T10:12:54.313Z,2.13
2022-11-06T10:16:10.770Z,1.63
2022-11-06T10:19:26.205Z,1.57
2022-11-06T10:22:40.203Z,1.87
2022-11-06T10:26:01.047Z,1.57
2022-11-06T10:29:58.534Z,1.83
2022-11-06T10:33:35.393Z,1.70
2022-11-06T10:36:50.105Z,1.73
2022-11-06T10:39:58.068Z,1.50
2022-11-06T10:43:26.535Z,1.53
2022-11-06T10:46:37.325Z,1.50
2022-11-06T10:49:49.293Z,1.67
2022-11-06T10:53:02.158Z,1.50
2022-11-06T10:56:29.309Z,2.43
2022-11-06T10:59:33.667Z,1.57
2022-11-06T11:02:44.838Z,1.50
2022-11-06T11:05:48.427Z,1.60
2022-11-06T11:08:54.107Z,1.50
2022-11-06T11:11:58.112Z,1.87
2022-11-06T11:15:19.978Z,1.70
2022-11-06T11:18:31.115Z,1.40
2022-11-06T11:21:34.756Z,1.67
2022-11-06T11:25:00.556Z,1.60
2022-11-06T11:28:06.086Z,1.57
2022-11-06T11:31:15.685Z,2.07
2022-11-06T11:34:24.220Z,1.87
2022-11-06T11:37:32.545Z,1.60
2022-11-06T11:40:40.134Z,1.83
2022-11-06T11:43:44.463Z,1.40
2022-11-06T11:46:51.421Z,1.53
2022-11-06T11:49:55.014Z,1.40
2022-11-06T11:53:09.910Z,1.50
2022-11-06T11:56:36.508Z,1.10
2022-11-06T11:59:48.634Z,1.27
2022-11-06T12:02:57.382Z,1.00
2022-11-06T12:06:12.512Z,1.67
2022-11-06T12:09:16.298Z,0.97
2022-11-06T12:12:25.966Z,1.40
2022-11-06T12:15:40.899Z,1.57
2022-11-06T12:18:54.671Z,1.20
2022-11-06T12:22:11.905Z,0.90
2022-11-06T12:25:20.920Z,1.10
2022-11-06T12:28:30.009Z,1.30
2022-11-06T12:31:42.707Z,1.07
2022-11-06T12:34:58.643Z,1.30
2022-11-06T12:38:20.786Z,1.20
2022-11-06T12:41:29.304Z,1.03
2022-11-06T12:44:34.553Z,1.20
2022-11-06T12:47:56.201Z,1.03
2022-11-06T12:51:13.208Z,1.10
2022-11-06T12:54:42.510Z,1.33
2022-11-06T12:58:07.229Z,1.20
2022-11-06T13:01:26.607Z,1.13
2022-11-06T13:04:48.599Z,1.20
2022-11-06T13:08:17.279Z,1.20
2022-11-06T13:11:38.164Z,1.80
2022-11-06T13:14:53.449Z,1.20
2022-11-06T13:18:06.901Z,1.20
2022-11-06T13:21:22.888Z,1.30
2022-11-06T13:24:36.203Z,2.00
2022-11-06T13:27:46.613Z,1.83
2022-11-06T13:30:54.414Z,1.20
2022-11-06T13:34:03.414Z,1.67
2022-11-06T13:37:15.792Z,1.50
2022-11-06T13:40:28.983Z,1.20
2022-11-06T13:43:40.261Z,1.37
2022-11-06T13:46:59.467Z,1.63
2022-11-06T13:50:16.445Z,1.27
2022-11-06T13:53:28.369Z,2.43
2022-11-06T13:56:57.199Z,1.20
2022-11-06T14:00:20.482Z,1.30
2022-11-06T14:04:07.977Z,1.43
2022-11-06T14:07:15.033Z,1.50
2022-11-06T14:10:23.834Z,2.10
2022-11-06T14:13:32.709Z,1.90
2022-11-06T14:16:38.589Z,1.53
2022-11-06T14:20:06.434Z,1.83
2022-11-06T14:23:53.175Z,1.60
2022-11-06T14:26:57.042Z,1.83
2022-11-06T14:30:23.008Z,1.77
2022-11-06T14:34:02.752Z,1.80
2022-11-06T14:37:46.385Z,2.17
2022-11-06T14:40:51.464Z,2.30
2022-11-06T14:43:58.549Z,2.30
2022-11-06T14:47:06.889Z,1.97
2022-11-06T14:50:27.425Z,2.23
2022-11-06T14:53:38.506Z,2.33
2022-11-06T14:56:43.811Z,2.37
2022-11-06T14:59:49.164Z,2.57
2022-11-06T15:02:52.872Z,2.20
2022-11-06T15:06:05.785Z,2.10
2022-11-06T15:09:14.990Z,2.20
2022-11-06T15:12:51.753Z,2.10
2022-11-06T15:16:04.611Z,2.30
2022-11-06T15:19:16.152Z,1.90
2022-11-06T15:22:30.836Z,2.40
2022-11-06T15:25:36.043Z,2.20
2022-11-06T15:28:50.305Z,2.23
2022-11-06T15:32:01.613Z,1.80
2022-11-06T15:35:10.738Z,2.10
2022-11-06T15:38:21.185Z,1.97
2022-11-06T15:41:27.792Z,1.97
2022-11-06T15:44:32.891Z,2.47
2022-11-06T15:47:36.735Z,2.27
2022-11-06T15:50:44.765Z,2.67
2022-11-06T15:53:48.577Z,2.70
2022-11-06T15:56:52.328Z,2.03
2022-11-06T16:00:18.225Z,2.27
2022-11-06T16:03:25.193Z,2.50
2022-11-06T16:06:28.910Z,2.50
2022-11-06T16:09:33.186Z,3.37
2022-11-06T16:12:36.818Z,2.27
2022-11-06T16:15:50.681Z,2.17
2022-11-06T16:18:54.932Z,2.40
2022-11-06T16:22:04.434Z,3.40
2022-11-06T16:25:18.941Z,2.53
2022-11-06T16:28:24.517Z,2.10
2022-11-06T16:31:32.075Z,2.27
2022-11-06T16:34:43.967Z,5.30
2022-11-06T16:37:47.622Z,2.67
2022-11-06T16:40:53.262Z,3.20
2022-11-06T16:44:30.742Z,2.43
2022-11-06T16:47:36.434Z,4.33
2022-11-06T16:50:50.900Z,7.97
2022-11-06T16:54:00.291Z,2.30
2022-11-06T16:57:13.267Z,4.43
2022-11-06T17:00:27.470Z,2.30
2022-11-06T17:03:41.717Z,3.90
2022-11-06T17:06:46.640Z,2.90
2022-11-06T17:09:50.352Z,2.43
2022-11-06T17:12:54.138Z,3.00
2022-11-06T17:16:02.072Z,5.70
2022-11-06T17:19:07.690Z,2.30
2022-11-06T17:22:11.925Z,2.70
2022-11-06T17:25:16.772Z,2.30
2022-11-06T17:28:22.709Z,2.33
2022-11-06T17:31:27.633Z,2.13
2022-11-06T17:34:32.595Z,3.10
2022-11-06T17:37:37.130Z,2.83
2022-11-06T17:40:40.907Z,2.57
2022-11-06T17:43:44.493Z,2.40
2022-11-06T17:46:48.580Z,2.13
2022-11-06T17:49:53.869Z,3.70
2022-11-06T17:52:57.493Z,2.43
2022-11-06T17:56:05.413Z,2.47
2022-11-06T17:59:10.956Z,2.33
2022-11-06T18:02:29.976Z,3.07
2022-11-06T18:05:51.930Z,2.60
2022-11-06T18:08:57.915Z,2.20
2022-11-06T18:12:01.942Z,1.80
2022-11-06T18:15:06.817Z,1.93
2022-11-06T18:18:10.647Z,4.27
2022-11-06T18:21:16.193Z,3.50
2022-11-06T18:24:19.897Z,2.60
2022-11-06T18:27:23.412Z,2.03
2022-11-06T18:30:27.033Z,2.20
2022-11-06T18:33:31.192Z,2.00
2022-11-06T18:36:36.864Z,2.07
2022-11-06T18:39:40.802Z,4.07
2022-11-06T18:42:44.466Z,2.77
2022-11-06T18:45:48.272Z,2.23
2022-11-06T18:48:52.026Z,1.97
2022-11-06T18:51:57.843Z,3.10
2022-11-06T18:55:01.484Z,1.57
2022-11-06T18:58:05.028Z,1.40
2022-11-06T19:01:11.599Z,1.80
2022-11-06T19:04:15.381Z,2.27
2022-11-06T19:07:20.530Z,1.40
2022-11-06T19:10:24.301Z,1.73
2022-11-06T19:13:27.883Z,1.73
2022-11-06T19:16:32.238Z,1.53
2022-11-06T19:19:35.870Z,1.43
2022-11-06T19:22:40.743Z,1.87
2022-11-06T19:25:45.781Z,1.53
2022-11-06T19:28:52.862Z,1.70
2022-11-06T19:32:01.782Z,1.90
2022-11-06T19:35:06.062Z,1.80
2022-11-06T19:38:11.033Z,1.93
2022-11-06T19:41:14.733Z,2.13
2022-11-06T19:44:18.601Z,1.50
2022-11-06T19:47:22.106Z,2.20
2022-11-06T19:50:53.512Z,1.70
2022-11-06T19:53:54.154Z,2.00
2022-11-06T19:57:27.725Z,1.93
2022-11-06T20:00:21.676Z,2.03
2022-11-06T20:03:25.302Z,2.03
2022-11-06T20:06:28.890Z,1.83
2022-11-06T20:09:34.767Z,1.67
2022-11-06T20:12:38.292Z,1.80
2022-11-06T20:15:41.935Z,2.33
2022-11-06T20:18:46.025Z,2.87
2022-11-06T20:21:49.715Z,1.93
2022-11-06T20:24:54.792Z,1.80
2022-11-06T20:27:58.398Z,2.10
2022-11-06T20:31:06.465Z,2.00
2022-11-06T20:34:10.382Z,1.90
2022-11-06T20:37:14.127Z,2.13
2022-11-06T20:40:19.208Z,2.33
2022-11-06T20:43:23.147Z,2.17
2022-11-06T20:46:27.210Z,2.20
2022-11-06T20:49:30.894Z,2.60
2022-11-06T20:52:37.705Z,2.13
2022-11-06T20:55:42.909Z,2.00
2022-11-06T20:58:46.636Z,2.53
2022-11-06T21:01:51.908Z,2.50
2022-11-06T21:04:55.730Z,2.80
2022-11-06T21:07:59.321Z,2.73
2022-11-06T21:11:07.806Z,2.33
2022-11-06T21:14:11.518Z,2.10
2022-11-06T21:17:15.144Z,2.33
2022-11-06T21:20:23.008Z,2.80
2022-11-06T21:23:26.966Z,2.20
2022-11-06T21:26:34.342Z,2.40
2022-11-06T21:29:38.097Z,2.23
2022-11-06T21:32:41.889Z,2.17
2022-11-06T21:35:45.784Z,2.23
2022-11-06T21:38:52.957Z,2.73
2022-11-06T21:41:58.058Z,2.90
2022-11-06T21:45:01.690Z,2.50
2022-11-06T21:48:14.712Z,2.60
2022-11-06T21:51:32.064Z,2.63
2022-11-06T21:54:53.126Z,2.53
2022-11-06T21:57:58.167Z,2.57
2022-11-06T22:01:04.726Z,1.50
2022-11-06T22:04:09.187Z,2.60
2022-11-06T22:07:13.268Z,2.40
2022-11-06T22:10:17.093Z,2.40
2022-11-06T22:13:22.179Z,2.80
2022-11-06T22:16:29.110Z,2.40
2022-11-06T22:19:32.738Z,2.30
2022-11-06T22:22:36.478Z,1.97
2022-11-06T22:25:40.866Z,2.43
2022-11-06T22:28:46.581Z,2.13
2022-11-06T22:31:52.320Z,2.17
2022-11-06T22:34:55.920Z,2.60
2022-11-06T22:38:00.630Z,2.37
2022-11-06T22:41:07.041Z,2.60
2022-11-06T22:44:12.666Z,2.17
2022-11-06T22:47:16.690Z,2.20
2022-11-06T22:50:20.404Z,2.30
2022-11-06T22:53:24.071Z,2.10
2022-11-06T22:56:29.489Z,2.20
2022-11-06T22:59:34.607Z,2.20
2022-11-06T23:02:38.469Z,2.13
2022-11-06T23:05:42.092Z,2.00
2022-11-06T23:08:47.166Z,2.20
2022-11-06T23:11:50.980Z,2.30
2022-11-06T23:14:58.576Z,2.80
2022-11-06T23:18:02.301Z,2.50
2022-11-06T23:21:14.568Z,2.60
2022-11-06T23:24:18.235Z,2.73
2022-11-06T23:27:21.843Z,2.43
2022-11-06T23:30:30.117Z,2.80
2022-11-06T23:33:33.693Z,2.83
2022-11-06T23:36:37.261Z,3.80
2022-11-06T23:39:40.972Z,3.00
2022-11-06T23:42:44.546Z,3.50
2022-11-06T23:46:07.124Z,3.57
2022-11-06T23:49:10.670Z,3.03
2022-11-06T23:52:14.292Z,3.30
2022-11-06T23:55:18.102Z,3.30
2022-11-06T23:58:21.653Z,2.80
